| time (UTC) | temp F | wind direction | speed MPH | gust MPH | rain 1hr in | rain 24hr in | rain mn in | humidity % | barometer mb |
| 20260904175938 | 88 | 165 | 6.0 | 15.0 | 0.00 | 0.00 | 0.00 | 69 | 1011.6 |
| 20260904173008 | 87 | 184 | 0.0 | 9.0 | 0.00 | 0.00 | 0.00 | 71 | 1012.0 |
| 20260904170007 | 85 | 192 | 0.0 | 8.0 | 0.00 | 0.00 | 0.00 | 74 | 1012.0 |
| 20260904163006 | 84 | 191 | 2.0 | 7.0 | 0.00 | 0.00 | 0.00 | 77 | 1011.8 |
| 20260904160005 | 83 | 192 | 0.0 | 7.0 | 0.00 | 0.00 | 0.00 | 81 | 1011.6 |
| 20260904153005 | 82 | 191 | 6.0 | 9.0 | 0.00 | 0.00 | 0.00 | 85 | 1011.5 |
| 20260904150004 | 81 | 201 | 1.0 | 12.0 | 0.00 | 0.00 | 0.00 | 86 | 1011.2 |
| 20260904143003 | 81 | 162 | 0.0 | 8.0 | 0.00 | 0.00 | 0.00 | 87 | 1011.4 |
| 20260904140003 | 80 | 153 | 0.0 | 6.0 | 0.00 | 0.00 | 0.00 | 89 | 1011.4 |
| 20260904133002 | 80 | 153 | 0.0 | 0.0 | 0.00 | 0.00 | 0.00 | 90 | 1011.6 |
| 20260904123000 | 79 | 153 | 0.0 | 10.0 | 0.00 | 0.00 | 0.00 | 90 | 1011.1 |
| 20260904115959 | 79 | 157 | 0.0 | 10.0 | 0.00 | 0.00 | 0.00 | 90 | 1010.5 |
| 20260904105958 | 80 | 173 | 2.0 | 8.0 | 0.00 | 0.00 | 0.00 | 89 | 1010.2 |
| 20260904102957 | 80 | 177 | 0.0 | 7.0 | 0.00 | 0.00 | 0.00 | 88 | 1010.1 |
| 20260904095956 | 80 | 178 | 2.0 | 8.0 | 0.00 | 0.00 | 0.00 | 88 | 1010.0 |
| 20260904092955 | 80 | 179 | 0.0 | 6.0 | 0.00 | 0.00 | 0.00 | 88 | 1009.9 |
| 20260904085955 | 80 | 180 | 1.0 | 9.0 | 0.00 | 0.00 | 0.00 | 87 | 1009.9 |
| 20260904082954 | 80 | 182 | 2.0 | 9.0 | 0.00 | 0.00 | 0.00 | 86 | 1010.1 |
| 20260904075953 | 80 | 169 | 1.0 | 14.0 | 0.00 | 0.00 | 0.00 | 86 | 1010.1 |
| 20260904072952 | 80 | 171 | 6.0 | 12.0 | 0.00 | 0.00 | 0.00 | 85 | 1010.1 |
| 20260904062951 | 81 | 169 | 4.0 | 12.0 | 0.00 | 0.00 | 0.00 | 83 | 1010.5 |
| 20260904055950 | 81 | 157 | 4.0 | 14.0 | 0.00 | 0.00 | 0.00 | 82 | 1010.6 |
| 20260904052949 | 81 | 153 | 7.0 | 13.0 | 0.00 | 0.00 | 0.00 | 82 | 1010.2 |
| 20260904045949 | 81 | 147 | 2.0 | 14.0 | 0.00 | 0.00 | 0.00 | 81 | 1010.1 |
| 20260904042948 | 81 | 136 | 0.0 | 13.0 | 0.00 | 0.00 | 0.00 | 81 | 1010.0 |
| 20260904035947 | 81 | 128 | 0.0 | 10.0 | 0.00 | 0.00 | 0.00 | 80 | 1009.9 |
| 20260904032947 | 81 | 122 | 0.0 | 13.0 | 0.00 | 0.00 | 0.00 | 79 | 1009.6 |
| 20260904025945 | 82 | 121 | 0.0 | 18.0 | 0.00 | 0.00 | 0.00 | 77 | 1009.3 |
| 20260904022945 | 83 | 132 | 7.0 | 14.0 | 0.00 | 0.00 | 0.00 | 73 | 1008.8 |
| 20260904012943 | 85 | 124 | 1.0 | 22.0 | 0.00 | 0.00 | 0.00 | 69 | 1008.2 |
| 20260904005943 | 86 | 106 | 7.0 | 16.0 | 0.00 | 0.00 | 0.00 | 68 | 1007.9 |
| 20260904002942 | 88 | 119 | 2.0 | 15.0 | 0.00 | 0.00 | 0.00 | 66 | 1008.1 |
| 20260903235941 | 90 | 132 | 4.0 | 17.0 | 0.00 | 0.00 | 0.00 | 65 | 1007.8 |
| 20260903232940 | 91 | 104 | 9.0 | 21.0 | 0.00 | 0.00 | 0.00 | 64 | 1007.6 |
| 20260903230009 | 94 | 106 | 4.0 | 21.0 | 0.00 | 0.00 | 0.00 | 61 | 1007.3 |
| 20260903223008 | 96 | 113 | 10.0 | 18.0 | 0.00 | 0.00 | 0.00 | 52 | 1006.9 |
| 20260903220008 | 96 | 117 | 4.0 | 18.0 | 0.00 | 0.00 | 0.00 | 52 | 1006.9 |
| 20260903213007 | 98 | 130 | 7.0 | 16.0 | 0.00 | 0.00 | 0.00 | 49 | 1007.2 |
| 20260903210007 | 98 | 101 | 13.0 | 14.0 | 0.00 | 0.00 | 0.00 | 48 | 1007.4 |
| 20260903203005 | 99 | 107 | 0.0 | 13.0 | 0.00 | 0.00 | 0.00 | 46 | 1007.9 |
| 20260903200005 | 98 | 104 | 2.0 | 10.0 | 0.00 | 0.00 | 0.00 | 48 | 1008.2 |
| 20260903193004 | 100 | 153 | 0.0 | 7.0 | 0.00 | 0.00 | 0.00 | 44 | 1008.4 |
| 20260903190004 | 98 | 165 | 0.0 | 7.0 | 0.00 | 0.00 | 0.00 | 49 | 1009.0 |
| 20260903183002 | 96 | 157 | 0.0 | 5.0 | 0.00 | 0.00 | 0.00 | 52 | 1009.5 |